createdAt,value
2022-11-06T00:03:44.786Z,78.17
2022-11-06T00:08:46.078Z,78.11
2022-11-06T00:13:47.961Z,78.10
2022-11-06T00:18:49.904Z,79.55
2022-11-06T00:23:52.360Z,79.81
2022-11-06T00:28:54.286Z,80.14
2022-11-06T00:33:57.465Z,79.89
2022-11-06T00:38:59.797Z,79.67
2022-11-06T00:44:02.485Z,79.57
2022-11-06T00:49:03.799Z,79.21
2022-11-06T00:54:09.620Z,79.72
2022-11-06T00:59:13.194Z,79.86
2022-11-06T01:04:20.698Z,79.27
2022-11-06T01:09:24.482Z,79.51
2022-11-06T01:14:26.354Z,79.23
2022-11-06T01:19:27.722Z,79.17
2022-11-06T01:24:29.573Z,79.65
2022-11-06T01:29:31.120Z,79.21
2022-11-06T01:34:32.450Z,79.38
2022-11-06T01:39:33.743Z,79.53
2022-11-06T01:44:40.959Z,79.79
2022-11-06T01:49:42.667Z,80.82
2022-11-06T01:54:46.527Z,78.70
2022-11-06T01:59:50.552Z,79.31
2022-11-06T02:04:51.997Z,79.73
2022-11-06T02:09:53.331Z,79.24
2022-11-06T02:15:13.207Z,79.17
2022-11-06T02:20:28.827Z,79.06
2022-11-06T02:25:42.112Z,78.82
2022-11-06T02:30:47.479Z,79.42
2022-11-06T02:35:59.908Z,79.29
2022-11-06T02:41:06.849Z,80.10
2022-11-06T02:46:18.223Z,80.38
2022-11-06T02:51:24.593Z,80.29
2022-11-06T02:56:31.067Z,80.06
2022-11-06T03:01:44.957Z,80.08
2022-11-06T03:06:59.440Z,79.92
2022-11-06T03:12:28.444Z,80.17
2022-11-06T03:17:47.575Z,80.47
2022-11-06T03:23:10.143Z,80.14
2022-11-06T03:28:25.534Z,80.47
2022-11-06T03:33:37.113Z,79.80
2022-11-06T03:38:43.315Z,80.56
2022-11-06T03:43:47.634Z,81.18
2022-11-06T03:48:54.727Z,81.92
2022-11-06T03:54:02.459Z,81.68
2022-11-06T03:59:06.958Z,81.49
2022-11-06T04:04:31.343Z,81.18
2022-11-06T04:09:55.899Z,80.99
2022-11-06T04:14:59.189Z,80.59
2022-11-06T04:20:05.028Z,80.97
2022-11-06T04:25:37.042Z,80.81
2022-11-06T04:30:53.030Z,81.44
2022-11-06T04:36:07.324Z,82.30
2022-11-06T04:41:17.792Z,82.65
2022-11-06T04:46:23.428Z,82.60
2022-11-06T04:51:29.926Z,81.85
2022-11-06T04:56:35.600Z,81.38
2022-11-06T05:01:37.971Z,80.96
2022-11-06T05:06:39.417Z,81.13
2022-11-06T05:11:40.730Z,80.70
2022-11-06T05:16:42.213Z,81.81
2022-11-06T05:22:02.053Z,82.35
2022-11-06T05:27:03.414Z,82.84
2022-11-06T05:32:05.023Z,82.19
2022-11-06T05:37:06.517Z,82.37
2022-11-06T05:42:07.796Z,82.16
2022-11-06T05:47:09.194Z,82.58
2022-11-06T05:52:10.734Z,82.60
2022-11-06T05:57:12.226Z,82.58
2022-11-06T06:02:13.643Z,82.98
2022-11-06T06:07:15.036Z,82.83
2022-11-06T06:12:19.231Z,83.14
2022-11-06T06:17:20.941Z,82.33
2022-11-06T06:22:22.445Z,82.33
2022-11-06T06:27:25.779Z,81.78
2022-11-06T06:32:27.066Z,81.60
2022-11-06T06:37:28.427Z,79.32
2022-11-06T06:42:31.405Z,79.67
2022-11-06T06:47:32.908Z,78.97
2022-11-06T06:52:39.149Z,78.88
2022-11-06T06:57:43.569Z,78.29
2022-11-06T07:02:44.834Z,78.54
2022-11-06T07:07:46.715Z,78.19
2022-11-06T07:12:48.145Z,78.19
2022-11-06T07:17:49.492Z,76.71
2022-11-06T07:22:50.770Z,76.65
2022-11-06T07:27:52.071Z,76.67
2022-11-06T07:32:53.423Z,77.35
2022-11-06T07:37:54.891Z,76.19
2022-11-06T07:42:56.222Z,76.15
2022-11-06T07:47:59.217Z,75.75
2022-11-06T07:53:04.392Z,75.39
2022-11-06T07:58:05.781Z,74.20
2022-11-06T08:03:07.046Z,74.45
2022-11-06T08:08:08.798Z,74.04
2022-11-06T08:13:11.076Z,74.54
2022-11-06T08:18:12.905Z,75.22
2022-11-06T08:23:14.693Z,75.39
2022-11-06T08:28:16.526Z,76.06
2022-11-06T08:33:19.015Z,75.37
2022-11-06T08:38:20.606Z,75.35
2022-11-06T08:43:26.322Z,74.01
2022-11-06T08:48:27.736Z,73.02
2022-11-06T08:53:29.408Z,71.33
2022-11-06T08:58:31.178Z,70.76
2022-11-06T09:03:32.570Z,69.52
2022-11-06T09:08:34.258Z,68.18
2022-11-06T09:13:35.604Z,66.61
2022-11-06T09:18:36.884Z,65.08
2022-11-06T09:23:38.167Z,62.43
2022-11-06T09:28:39.503Z,59.51
2022-11-06T09:33:40.838Z,56.13
2022-11-06T09:38:42.206Z,50.77
2022-11-06T09:44:12.752Z,45.65
2022-11-06T09:49:26.326Z,44.26
2022-11-06T09:54:34.714Z,43.36
2022-11-06T09:59:38.105Z,46.80
2022-11-06T10:05:07.465Z,45.32
2022-11-06T10:10:26.041Z,43.34
2022-11-06T10:15:39.151Z,38.10
2022-11-06T10:20:51.639Z,34.13
2022-11-06T10:25:58.720Z,32.49
2022-11-06T10:31:15.190Z,29.43
2022-11-06T10:36:30.259Z,28.24
2022-11-06T10:41:35.350Z,25.71
2022-11-06T10:46:40.075Z,25.51
2022-11-06T10:51:59.681Z,25.03
2022-11-06T10:57:15.249Z,24.67
2022-11-06T11:02:25.144Z,23.51
2022-11-06T11:07:31.410Z,23.62
2022-11-06T11:12:33.689Z,22.67
2022-11-06T11:17:35.283Z,22.81
2022-11-06T11:22:36.602Z,22.40
2022-11-06T11:27:44.651Z,21.11
2022-11-06T11:32:46.106Z,20.79
2022-11-06T11:37:47.604Z,19.40
2022-11-06T11:42:49.398Z,19.05
2022-11-06T11:47:51.933Z,20.21
2022-11-06T11:53:14.708Z,21.50
2022-11-06T11:58:23.345Z,24.19
2022-11-06T12:03:29.104Z,22.93
2022-11-06T12:08:30.919Z,19.84
2022-11-06T12:13:32.639Z,22.68
2022-11-06T12:18:47.629Z,30.18
2022-11-06T12:23:56.190Z,33.84
2022-11-06T12:29:16.191Z,36.92
2022-11-06T12:34:26.966Z,39.58
2022-11-06T12:39:33.941Z,41.61
2022-11-06T12:44:35.600Z,41.84
2022-11-06T12:50:03.451Z,42.59
2022-11-06T12:55:12.083Z,40.57
2022-11-06T13:00:23.332Z,41.10
2022-11-06T13:05:29.237Z,42.34
2022-11-06T13:10:42.527Z,43.42
2022-11-06T13:15:46.860Z,40.84
2022-11-06T13:21:13.685Z,43.55
2022-11-06T13:26:32.393Z,44.89
2022-11-06T13:31:55.490Z,43.24
2022-11-06T13:36:58.047Z,42.03
2022-11-06T13:42:01.360Z,39.76
2022-11-06T13:47:19.633Z,40.27
2022-11-06T13:52:26.126Z,43.98
2022-11-06T13:57:55.801Z,46.98
2022-11-06T14:03:23.755Z,48.78
2022-11-06T14:08:30.412Z,49.25
2022-11-06T14:13:34.546Z,49.84
2022-11-06T14:18:36.071Z,50.48
2022-11-06T14:23:37.933Z,51.27
2022-11-06T14:28:41.831Z,52.63
2022-11-06T14:33:43.223Z,53.30
2022-11-06T14:38:45.244Z,54.32
2022-11-06T14:43:51.151Z,54.81
2022-11-06T14:48:55.950Z,55.58
2022-11-06T14:54:07.119Z,55.80
2022-11-06T14:59:20.652Z,56.42
2022-11-06T15:04:31.806Z,56.59
2022-11-06T15:09:39.394Z,56.04
2022-11-06T15:14:40.680Z,57.36
2022-11-06T15:19:50.321Z,55.91
2022-11-06T15:25:03.630Z,55.35
2022-11-06T15:30:05.872Z,55.92
2022-11-06T15:35:13.639Z,56.23
2022-11-06T15:40:29.494Z,55.64
2022-11-06T15:45:30.902Z,56.33
2022-11-06T15:50:34.093Z,56.92
2022-11-06T15:55:38.389Z,57.08
2022-11-06T16:00:41.420Z,57.14
2022-11-06T16:05:45.650Z,58.04
2022-11-06T16:10:50.953Z,58.58
2022-11-06T16:15:58.821Z,59.34
2022-11-06T16:21:21.097Z,57.75
2022-11-06T16:26:27.820Z,58.22
2022-11-06T16:31:31.261Z,58.57
2022-11-06T16:36:58.644Z,60.51
2022-11-06T16:42:09.374Z,60.21
2022-11-06T16:47:11.796Z,60.30
2022-11-06T16:52:16.141Z,60.21
2022-11-06T16:57:21.513Z,60.74
2022-11-06T17:02:26.717Z,61.56
2022-11-06T17:07:28.571Z,62.64
2022-11-06T17:12:29.978Z,64.42
2022-11-06T17:17:32.752Z,65.44
2022-11-06T17:22:35.753Z,65.64
2022-11-06T17:27:37.147Z,66.58
2022-11-06T17:32:38.756Z,67.25
2022-11-06T17:37:40.142Z,67.49
2022-11-06T17:42:41.472Z,68.91
2022-11-06T17:47:42.964Z,70.09
2022-11-06T17:52:44.389Z,70.56
2022-11-06T17:57:45.949Z,71.60
2022-11-06T18:03:01.034Z,72.14
2022-11-06T18:08:03.250Z,72.56
2022-11-06T18:13:05.399Z,72.43
2022-11-06T18:18:06.731Z,72.72
2022-11-06T18:23:08.048Z,73.23
2022-11-06T18:28:09.771Z,73.68
2022-11-06T18:33:11.117Z,73.86
2022-11-06T18:38:14.094Z,73.96
2022-11-06T18:43:15.906Z,74.47
2022-11-06T18:48:21.344Z,74.21
2022-11-06T18:53:23.457Z,75.19
2022-11-06T18:58:24.870Z,74.98
2022-11-06T19:03:26.561Z,75.15
2022-11-06T19:08:28.163Z,75.67
2022-11-06T19:13:29.480Z,76.04
2022-11-06T19:18:36.474Z,76.57
2022-11-06T19:23:40.319Z,76.87
2022-11-06T19:28:42.999Z,76.76
2022-11-06T19:33:44.612Z,76.74
2022-11-06T19:38:45.925Z,76.75
2022-11-06T19:43:47.596Z,75.94
2022-11-06T19:48:49.022Z,74.03
2022-11-06T19:53:54.076Z,74.42
2022-11-06T19:58:55.490Z,73.04
2022-11-06T20:03:56.869Z,72.40
2022-11-06T20:08:58.430Z,71.75
2022-11-06T20:13:59.988Z,71.58
2022-11-06T20:19:01.867Z,71.16
2022-11-06T20:24:03.462Z,70.45
2022-11-06T20:29:05.357Z,71.09
2022-11-06T20:34:06.688Z,70.49
2022-11-06T20:39:09.096Z,70.28
2022-11-06T20:44:10.433Z,69.36
2022-11-06T20:49:11.768Z,69.45
2022-11-06T20:54:13.110Z,69.22
2022-11-06T20:59:14.841Z,68.04
2022-11-06T21:04:16.587Z,68.56
2022-11-06T21:09:18.218Z,68.68
2022-11-06T21:14:19.731Z,69.21
2022-11-06T21:19:21.074Z,68.41
2022-11-06T21:24:23.822Z,68.69
2022-11-06T21:29:25.544Z,68.48
2022-11-06T21:34:27.114Z,68.32
2022-11-06T21:39:31.832Z,68.14
2022-11-06T21:44:37.213Z,68.24
2022-11-06T21:49:38.655Z,67.60
2022-11-06T21:54:59.149Z,67.72
2022-11-06T22:00:01.276Z,66.51
2022-11-06T22:05:03.124Z,66.28
2022-11-06T22:10:04.828Z,66.73
2022-11-06T22:15:06.765Z,67.35
2022-11-06T22:20:08.695Z,67.09
2022-11-06T22:25:10.038Z,67.15
2022-11-06T22:30:12.178Z,67.43
2022-11-06T22:35:13.470Z,67.82
2022-11-06T22:40:14.731Z,68.09
2022-11-06T22:45:16.003Z,69.17
2022-11-06T22:50:17.263Z,69.72
2022-11-06T22:55:18.505Z,70.34
2022-11-06T23:00:22.258Z,70.53
2022-11-06T23:05:23.498Z,70.84
2022-11-06T23:10:30.392Z,71.88
2022-11-06T23:15:33.511Z,71.74
2022-11-06T23:20:34.941Z,71.81
2022-11-06T23:25:37.775Z,71.97
2022-11-06T23:30:39.063Z,72.71
2022-11-06T23:35:40.404Z,73.08
2022-11-06T23:40:41.648Z,73.32
2022-11-06T23:45:49.056Z,73.79
2022-11-06T23:50:50.328Z,74.01
2022-11-06T23:55:51.589Z,74.25
